sensor_id;sensor_type;location;lat;lon;timestamp;pressure;altitude;pressure_sealevel;temperature;humidity
48668;BME280;34453;52.198;5.004;2023-05-10T00:02:22;101049.41;;;12.47;100.00
48668;BME280;34453;52.198;5.004;2023-05-10T00:04:48;101036.47;;;12.46;100.00
48668;BME280;34453;52.198;5.004;2023-05-10T00:07:13;101034.97;;;12.43;100.00
48668;BME280;34453;52.198;5.004;2023-05-10T00:09:39;101040.78;;;12.37;100.00
48668;BME280;34453;52.198;5.004;2023-05-10T00:12:05;101038.16;;;12.37;100.00
48668;BME280;34453;52.198;5.004;2023-05-10T00:14:30;101038.63;;;12.32;100.00
48668;BME280;34453;52.198;5.004;2023-05-10T00:16:56;101039.75;;;12.30;100.00
48668;BME280;34453;52.198;5.004;2023-05-10T00:19:22;101037.94;;;12.30;100.00
48668;BME280;34453;52.198;5.004;2023-05-10T00:21:47;101045.13;;;12.28;100.00
48668;BME280;34453;52.198;5.004;2023-05-10T00:24:12;101040.00;;;12.27;100.00
48668;BME280;34453;52.198;5.004;2023-05-10T00:26:38;101041.97;;;12.24;100.00
48668;BME280;34453;52.198;5.004;2023-05-10T00:29:03;101042.81;;;12.25;100.00
48668;BME280;34453;52.198;5.004;2023-05-10T00:31:29;101043.38;;;12.19;100.00
48668;BME280;34453;52.198;5.004;2023-05-10T00:33:54;101046.97;;;12.18;100.00
48668;BME280;34453;52.198;5.004;2023-05-10T00:36:20;101045.31;;;12.17;100.00
48668;BME280;34453;52.198;5.004;2023-05-10T00:38:46;101050.25;;;12.20;100.00
48668;BME280;34453;52.198;5.004;2023-05-10T00:41:11;101046.69;;;12.21;100.00
48668;BME280;34453;52.198;5.004;2023-05-10T00:43:37;101050.34;;;12.10;100.00
48668;BME280;34453;52.198;5.004;2023-05-10T00:46:03;101043.84;;;12.05;100.00
48668;BME280;34453;52.198;5.004;2023-05-10T00:48:29;101047.31;;;12.05;100.00
48668;BME280;34453;52.198;5.004;2023-05-10T00:50:55;101052.03;;;12.01;100.00
48668;BME280;34453;52.198;5.004;2023-05-10T00:53:21;101051.34;;;11.99;100.00
48668;BME280;34453;52.198;5.004;2023-05-10T00:55:46;101054.94;;;11.98;100.00
48668;BME280;34453;52.198;5.004;2023-05-10T00:58:12;101050.66;;;11.97;100.00
48668;BME280;34453;52.198;5.004;2023-05-10T01:00:41;101054.66;;;12.01;100.00
48668;BME280;34453;52.198;5.004;2023-05-10T01:03:07;101063.19;;;12.03;100.00
48668;BME280;34453;52.198;5.004;2023-05-10T01:05:32;101056.97;;;12.05;100.00
48668;BME280;34453;52.198;5.004;2023-05-10T01:07:57;101062.22;;;12.05;100.00
48668;BME280;34453;52.198;5.004;2023-05-10T01:10:23;101053.09;;;12.09;100.00
48668;BME280;34453;52.198;5.004;2023-05-10T01:12:49;101042.97;;;12.14;100.00
48668;BME280;34453;52.198;5.004;2023-05-10T01:15:15;101046.00;;;12.19;100.00
48668;BME280;34453;52.198;5.004;2023-05-10T01:17:43;101048.19;;;12.23;100.00
48668;BME280;34453;52.198;5.004;2023-05-10T01:20:10;101054.25;;;12.24;100.00
48668;BME280;34453;52.198;5.004;2023-05-10T01:28:21;101059.94;;;12.19;100.00
48668;BME280;34453;52.198;5.004;2023-05-10T01:31:03;101051.94;;;12.21;100.00
48668;BME280;34453;52.198;5.004;2023-05-10T01:33:55;101054.00;;;12.17;100.00
48668;BME280;34453;52.198;5.004;2023-05-10T01:36:43;101059.41;;;12.16;100.00
48668;BME280;34453;52.198;5.004;2023-05-10T01:39:28;101059.13;;;12.19;100.00
48668;BME280;34453;52.198;5.004;2023-05-10T01:42:08;101065.50;;;12.16;100.00
48668;BME280;34453;52.198;5.004;2023-05-10T01:47:44;101068.38;;;12.13;100.00
48668;BME280;34453;52.198;5.004;2023-05-10T01:50:24;101075.13;;;12.16;100.00
48668;BME280;34453;52.198;5.004;2023-05-10T01:52:53;101072.69;;;12.14;100.00
48668;BME280;34453;52.198;5.004;2023-05-10T01:55:21;101067.94;;;12.18;100.00
48668;BME280;34453;52.198;5.004;2023-05-10T01:57:51;101072.50;;;12.16;100.00
48668;BME280;34453;52.198;5.004;2023-05-10T02:00:19;101077.25;;;12.12;100.00
48668;BME280;34453;52.198;5.004;2023-05-10T02:02:47;101081.66;;;12.12;100.00
48668;BME280;34453;52.198;5.004;2023-05-10T02:05:15;101076.25;;;12.13;100.00
48668;BME280;34453;52.198;5.004;2023-05-10T02:07:41;101083.16;;;12.14;100.00
48668;BME280;34453;52.198;5.004;2023-05-10T02:10:09;101087.88;;;12.11;100.00
48668;BME280;34453;52.198;5.004;2023-05-10T02:12:37;101091.31;;;12.11;100.00
48668;BME280;34453;52.198;5.004;2023-05-10T02:15:05;101095.06;;;12.09;100.00
48668;BME280;34453;52.198;5.004;2023-05-10T02:17:32;101093.53;;;12.06;100.00
48668;BME280;34453;52.198;5.004;2023-05-10T02:20:01;101094.66;;;12.03;100.00
48668;BME280;34453;52.198;5.004;2023-05-10T02:22:28;101097.28;;;12.03;100.00
48668;BME280;34453;52.198;5.004;2023-05-10T02:24:57;101095.91;;;11.99;100.00
48668;BME280;34453;52.198;5.004;2023-05-10T02:27:24;101103.78;;;11.99;100.00
48668;BME280;34453;52.198;5.004;2023-05-10T02:29:51;101107.53;;;11.97;100.00
48668;BME280;34453;52.198;5.004;2023-05-10T02:32:17;101113.88;;;11.94;100.00
48668;BME280;34453;52.198;5.004;2023-05-10T02:34:44;101113.34;;;11.81;100.00
48668;BME280;34453;52.198;5.004;2023-05-10T02:37:13;101111.97;;;11.77;100.00
48668;BME280;34453;52.198;5.004;2023-05-10T02:39:39;101106.34;;;11.72;100.00
48668;BME280;34453;52.198;5.004;2023-05-10T02:42:13;101105.66;;;11.70;100.00
48668;BME280;34453;52.198;5.004;2023-05-10T02:44:41;101116.41;;;11.67;100.00
48668;BME280;34453;52.198;5.004;2023-05-10T02:47:07;101111.44;;;11.64;100.00
48668;BME280;34453;52.198;5.004;2023-05-10T02:49:32;101117.38;;;11.66;100.00
48668;BME280;34453;52.198;5.004;2023-05-10T02:52:01;101109.53;;;11.66;100.00
48668;BME280;34453;52.198;5.004;2023-05-10T02:54:32;101104.28;;;11.66;100.00
48668;BME280;34453;52.198;5.004;2023-05-10T02:57:00;101113.94;;;11.65;100.00
48668;BME280;34453;52.198;5.004;2023-05-10T02:59:28;101111.88;;;11.59;100.00
48668;BME280;34453;52.198;5.004;2023-05-10T03:01:53;101113.09;;;11.65;100.00
48668;BME280;34453;52.198;5.004;2023-05-10T03:04:19;101117.00;;;11.60;100.00
48668;BME280;34453;52.198;5.004;2023-05-10T03:06:44;101112.28;;;11.64;100.00
48668;BME280;34453;52.198;5.004;2023-05-10T03:09:10;101113.09;;;11.65;100.00
48668;BME280;34453;52.198;5.004;2023-05-10T03:11:53;101103.03;;;11.70;100.00
48668;BME280;34453;52.198;5.004;2023-05-10T03:17:25;101101.78;;;11.74;100.00
48668;BME280;34453;52.198;5.004;2023-05-10T03:19:56;101111.69;;;11.80;100.00
48668;BME280;34453;52.198;5.004;2023-05-10T03:22:36;101110.44;;;11.84;100.00
48668;BME280;34453;52.198;5.004;2023-05-10T03:25:05;101107.94;;;11.82;100.00
48668;BME280;34453;52.198;5.004;2023-05-10T03:27:32;101109.59;;;11.83;100.00
48668;BME280;34453;52.198;5.004;2023-05-10T03:29:57;101111.53;;;11.91;100.00
48668;BME280;34453;52.198;5.004;2023-05-10T03:32:23;101108.50;;;11.86;100.00
48668;BME280;34453;52.198;5.004;2023-05-10T03:34:48;101110.84;;;11.89;100.00
48668;BME280;34453;52.198;5.004;2023-05-10T03:37:14;101107.41;;;11.89;100.00
48668;BME280;34453;52.198;5.004;2023-05-10T03:39:39;101117.47;;;11.83;100.00
48668;BME280;34453;52.198;5.004;2023-05-10T03:42:05;101112.75;;;11.87;100.00
48668;BME280;34453;52.198;5.004;2023-05-10T03:44:30;101116.09;;;11.89;100.00
48668;BME280;34453;52.198;5.004;2023-05-10T03:46:58;101120.78;;;11.86;100.00
48668;BME280;34453;52.198;5.004;2023-05-10T03:49:23;101110.56;;;11.92;100.00
48668;BME280;34453;52.198;5.004;2023-05-10T03:51:49;101117.47;;;11.93;100.00
48668;BME280;34453;52.198;5.004;2023-05-10T03:54:14;101115.53;;;11.95;100.00
48668;BME280;34453;52.198;5.004;2023-05-10T03:56:40;101109.91;;;11.90;100.00
48668;BME280;34453;52.198;5.004;2023-05-10T03:59:05;101117.06;;;11.88;100.00
48668;BME280;34453;52.198;5.004;2023-05-10T04:01:33;101121.88;;;11.93;100.00
48668;BME280;34453;52.198;5.004;2023-05-10T04:03:59;101123.69;;;11.92;100.00
48668;BME280;34453;52.198;5.004;2023-05-10T04:06:24;101125.75;;;11.98;100.00
48668;BME280;34453;52.198;5.004;2023-05-10T04:08:50;101122.13;;;11.99;100.00
48668;BME280;34453;52.198;5.004;2023-05-10T04:11:15;101120.50;;;11.98;100.00
48668;BME280;34453;52.198;5.004;2023-05-10T04:13:41;101124.22;;;11.96;100.00
48668;BME280;34453;52.198;5.004;2023-05-10T04:16:06;101119.38;;;12.01;100.00
48668;BME280;34453;52.198;5.004;2023-05-10T04:18:32;101118.44;;;11.92;100.00
48668;BME280;34453;52.198;5.004;2023-05-10T04:20:57;101119.13;;;11.94;100.00
48668;BME280;34453;52.198;5.004;2023-05-10T04:23:23;101125.31;;;11.93;100.00
48668;BME280;34453;52.198;5.004;2023-05-10T04:25:48;101128.38;;;11.98;100.00
48668;BME280;34453;52.198;5.004;2023-05-10T04:28:14;101130.69;;;12.01;100.00
48668;BME280;34453;52.198;5.004;2023-05-10T04:30:39;101130.94;;;12.08;100.00
48668;BME280;34453;52.198;5.004;2023-05-10T04:33:05;101129.00;;;12.10;100.00
48668;BME280;34453;52.198;5.004;2023-05-10T04:35:31;101138.50;;;12.11;100.00
48668;BME280;34453;52.198;5.004;2023-05-10T04:37:56;101130.38;;;12.14;100.00
48668;BME280;34453;52.198;5.004;2023-05-10T04:40:21;101140.56;;;12.17;100.00
48668;BME280;34453;52.198;5.004;2023-05-10T04:42:47;101136.00;;;12.19;100.00
48668;BME280;34453;52.198;5.004;2023-05-10T04:45:13;101133.13;;;12.13;100.00
48668;BME280;34453;52.198;5.004;2023-05-10T04:47:40;101136.44;;;12.15;100.00
48668;BME280;34453;52.198;5.004;2023-05-10T04:50:06;101133.44;;;12.10;100.00
48668;BME280;34453;52.198;5.004;2023-05-10T04:52:31;101143.13;;;11.99;100.00
48668;BME280;34453;52.198;5.004;2023-05-10T04:54:57;101136.50;;;12.05;100.00
48668;BME280;34453;52.198;5.004;2023-05-10T04:57:22;101135.63;;;12.05;100.00
48668;BME280;34453;52.198;5.004;2023-05-10T04:59:47;101142.00;;;12.12;100.00
48668;BME280;34453;52.198;5.004;2023-05-10T05:02:13;101149.59;;;12.05;100.00
48668;BME280;34453;52.198;5.004;2023-05-10T05:04:38;101147.50;;;12.09;100.00
48668;BME280;34453;52.198;5.004;2023-05-10T05:07:04;101143.13;;;11.99;100.00
48668;BME280;34453;52.198;5.004;2023-05-10T05:09:30;101152.63;;;12.00;100.00
48668;BME280;34453;52.198;5.004;2023-05-10T05:11:57;101152.22;;;11.95;100.00
48668;BME280;34453;52.198;5.004;2023-05-10T05:14:22;101169.06;;;11.93;100.00
48668;BME280;34453;52.198;5.004;2023-05-10T05:16:50;101164.38;;;11.96;100.00
48668;BME280;34453;52.198;5.004;2023-05-10T05:19:16;101163.78;;;12.02;100.00
48668;BME280;34453;52.198;5.004;2023-05-10T05:21:41;101166.41;;;12.02;100.00
48668;BME280;34453;52.198;5.004;2023-05-10T05:24:07;101164.09;;;11.99;100.00
48668;BME280;34453;52.198;5.004;2023-05-10T05:26:32;101166.31;;;11.94;100.00
48668;BME280;34453;52.198;5.004;2023-05-10T05:28:58;101167.69;;;11.98;100.00
48668;BME280;34453;52.198;5.004;2023-05-10T05:31:23;101169.22;;;12.01;100.00
48668;BME280;34453;52.198;5.004;2023-05-10T05:33:49;101164.38;;;11.96;100.00
48668;BME280;34453;52.198;5.004;2023-05-10T05:36:14;101176.53;;;11.97;100.00
48668;BME280;34453;52.198;5.004;2023-05-10T05:38:40;101171.81;;;12.01;100.00
48668;BME280;34453;52.198;5.004;2023-05-10T05:41:05;101177.06;;;12.01;100.00
48668;BME280;34453;52.198;5.004;2023-05-10T05:43:31;101174.28;;;12.02;100.00
48668;BME280;34453;52.198;5.004;2023-05-10T05:45:56;101183.69;;;12.05;100.00
48668;BME280;34453;52.198;5.004;2023-05-10T05:48:23;101181.59;;;12.09;100.00
48668;BME280;34453;52.198;5.004;2023-05-10T05:50:48;101178.09;;;12.18;100.00
48668;BME280;34453;52.198;5.004;2023-05-10T05:53:14;101188.03;;;12.24;100.00
48668;BME280;34453;52.198;5.004;2023-05-10T05:55:39;101178.63;;;12.31;100.00
48668;BME280;34453;52.198;5.004;2023-05-10T05:58:05;101178.91;;;12.28;100.00
48668;BME280;34453;52.198;5.004;2023-05-10T06:00:31;101183.84;;;12.41;100.00
48668;BME280;34453;52.198;5.004;2023-05-10T06:02:56;101189.22;;;12.39;100.00
48668;BME280;34453;52.198;5.004;2023-05-10T06:05:22;101193.41;;;12.32;100.00
48668;BME280;34453;52.198;5.004;2023-05-10T06:07:47;101178.63;;;12.31;100.00
48668;BME280;34453;52.198;5.004;2023-05-10T06:10:13;101184.56;;;12.33;100.00
48668;BME280;34453;52.198;5.004;2023-05-10T06:12:38;101196.09;;;12.40;100.00
48668;BME280;34453;52.198;5.004;2023-05-10T06:15:04;101195.97;;;12.42;100.00
48668;BME280;34453;52.198;5.004;2023-05-10T06:17:30;101187.34;;;12.32;100.00
48668;BME280;34453;52.198;5.004;2023-05-10T06:19:55;101191.03;;;12.29;100.00
48668;BME280;34453;52.198;5.004;2023-05-10T06:22:21;101193.41;;;12.32;100.00
48668;BME280;34453;52.198;5.004;2023-05-10T06:24:49;101187.16;;;12.33;100.00
48668;BME280;34453;52.198;5.004;2023-05-10T06:27:15;101187.41;;;12.50;100.00
48668;BME280;34453;52.198;5.004;2023-05-10T06:29:40;101197.09;;;12.67;100.00
48668;BME280;34453;52.198;5.004;2023-05-10T06:32:06;101188.97;;;12.60;100.00
48668;BME280;34453;52.198;5.004;2023-05-10T06:34:31;101189.84;;;12.61;100.00
48668;BME280;34453;52.198;5.004;2023-05-10T06:36:57;101194.88;;;12.72;100.00
48668;BME280;34453;52.198;5.004;2023-05-10T06:39:22;101194.19;;;12.70;100.00
48668;BME280;34453;52.198;5.004;2023-05-10T06:41:48;101189.22;;;12.67;100.00
48668;BME280;34453;52.198;5.004;2023-05-10T06:44:13;101190.00;;;12.77;100.00
48668;BME280;34453;52.198;5.004;2023-05-10T06:46:39;101199.78;;;12.85;100.00
48668;BME280;34453;52.198;5.004;2023-05-10T06:49:04;101202.75;;;12.72;100.00
48668;BME280;34453;52.198;5.004;2023-05-10T06:51:30;101201.38;;;12.68;100.00
48668;BME280;34453;52.198;5.004;2023-05-10T06:53:55;101193.13;;;12.63;100.00
48668;BME280;34453;52.198;5.004;2023-05-10T06:56:21;101188.41;;;12.67;100.00
48668;BME280;34453;52.198;5.004;2023-05-10T06:58:47;101198.91;;;12.67;100.00
48668;BME280;34453;52.198;5.004;2023-05-10T07:01:13;101199.16;;;12.73;100.00
48668;BME280;34453;52.198;5.004;2023-05-10T07:03:38;101209.16;;;12.88;100.00
48668;BME280;34453;52.198;5.004;2023-05-10T07:06:04;101206.38;;;12.89;100.00
48668;BME280;34453;52.198;5.004;2023-05-10T07:08:30;101203.53;;;13.00;100.00
48668;BME280;34453;52.198;5.004;2023-05-10T07:11:00;101212.28;;;13.01;100.00
48668;BME280;34453;52.198;5.004;2023-05-10T07:13:26;101214.06;;;13.00;100.00
48668;BME280;34453;52.198;5.004;2023-05-10T07:15:51;101218.88;;;13.05;100.00
48668;BME280;34453;52.198;5.004;2023-05-10T07:18:17;101227.13;;;13.10;100.00
48668;BME280;34453;52.198;5.004;2023-05-10T07:20:42;101224.13;;;13.05;100.00
48668;BME280;34453;52.198;5.004;2023-05-10T07:23:08;101225.41;;;13.01;100.00
48668;BME280;34453;52.198;5.004;2023-05-10T07:25:33;101224.41;;;13.02;100.00
48668;BME280;34453;52.198;5.004;2023-05-10T07:27:59;101230.03;;;13.07;100.00
48668;BME280;34453;52.198;5.004;2023-05-10T07:30:24;101221.88;;;13.10;100.00
48668;BME280;34453;52.198;5.004;2023-05-10T07:32:49;101226.38;;;13.00;100.00
48668;BME280;34453;52.198;5.004;2023-05-10T07:35:15;101231.41;;;13.11;100.00
48668;BME280;34453;52.198;5.004;2023-05-10T07:37:40;101234.53;;;12.97;100.00
48668;BME280;34453;52.198;5.004;2023-05-10T07:40:06;101237.31;;;12.95;100.00
48668;BME280;34453;52.198;5.004;2023-05-10T07:42:32;101241.19;;;12.91;100.00
48668;BME280;34453;52.198;5.004;2023-05-10T07:44:57;101238.75;;;12.90;100.00
48668;BME280;34453;52.198;5.004;2023-05-10T07:47:23;101235.25;;;12.89;100.00
48668;BME280;34453;52.198;5.004;2023-05-10T07:49:51;101244.59;;;13.01;100.00
48668;BME280;34453;52.198;5.004;2023-05-10T07:52:16;101244.53;;;13.11;100.00
48668;BME280;34453;52.198;5.004;2023-05-10T07:54:42;101245.38;;;13.12;100.00
48668;BME280;34453;52.198;5.004;2023-05-10T07:57:07;101247.25;;;13.19;100.00
48668;BME280;34453;52.198;5.004;2023-05-10T07:59:32;101238.13;;;13.23;100.00
48668;BME280;34453;52.198;5.004;2023-05-10T08:01:58;101241.38;;;13.35;100.00
48668;BME280;34453;52.198;5.004;2023-05-10T08:04:24;101238.88;;;13.52;100.00
48668;BME280;34453;52.198;5.004;2023-05-10T08:06:49;101241.91;;;13.57;100.00
48668;BME280;34453;52.198;5.004;2023-05-10T08:09:16;101242.66;;;13.49;100.00
48668;BME280;34453;52.198;5.004;2023-05-10T08:11:41;101236.56;;;13.48;100.00
48668;BME280;34453;52.198;5.004;2023-05-10T08:14:06;101244.00;;;13.53;100.00
48668;BME280;34453;52.198;5.004;2023-05-10T08:16:32;101241.22;;;13.55;100.00
48668;BME280;34453;52.198;5.004;2023-05-10T08:18:57;101241.69;;;13.50;100.00
48668;BME280;34453;52.198;5.004;2023-05-10T08:21:23;101250.63;;;13.57;100.00
48668;BME280;34453;52.198;5.004;2023-05-10T08:23:48;101252.47;;;13.47;100.00
48668;BME280;34453;52.198;5.004;2023-05-10T08:26:15;101254.25;;;13.56;100.00
48668;BME280;34453;52.198;5.004;2023-05-10T08:28:40;101260.09;;;13.50;100.00
48668;BME280;34453;52.198;5.004;2023-05-10T08:31:06;101255.44;;;13.44;100.00
48668;BME280;34453;52.198;5.004;2023-05-10T08:33:31;101263.09;;;13.55;100.00
48668;BME280;34453;52.198;5.004;2023-05-10T08:35:57;101264.34;;;13.69;100.00
48668;BME280;34453;52.198;5.004;2023-05-10T08:38:22;101264.56;;;13.76;100.00
48668;BME280;34453;52.198;5.004;2023-05-10T08:40:48;101269.91;;;13.84;100.00
48668;BME280;34453;52.198;5.004;2023-05-10T08:43:14;101276.53;;;13.88;100.00
48668;BME280;34453;52.198;5.004;2023-05-10T08:45:44;101268.91;;;13.85;100.00
48668;BME280;34453;52.198;5.004;2023-05-10T08:48:13;101269.31;;;13.90;100.00
48668;BME280;34453;52.198;5.004;2023-05-10T08:50:40;101281.22;;;14.02;100.00
48668;BME280;34453;52.198;5.004;2023-05-10T08:53:09;101273.28;;;14.20;100.00
48668;BME280;34453;52.198;5.004;2023-05-10T08:55:36;101273.22;;;14.30;100.00
48668;BME280;34453;52.198;5.004;2023-05-10T08:58:05;101270.94;;;14.35;100.00
48668;BME280;34453;52.198;5.004;2023-05-10T09:00:32;101268.03;;;14.46;100.00
48668;BME280;34453;52.198;5.004;2023-05-10T09:02:58;101276.59;;;14.48;100.00
48668;BME280;34453;52.198;5.004;2023-05-10T09:05:23;101270.72;;;14.28;100.00
48668;BME280;34453;52.198;5.004;2023-05-10T09:07:49;101272.28;;;14.39;100.00
48668;BME280;34453;52.198;5.004;2023-05-10T09:10:15;101276.59;;;14.22;100.00
48668;BME280;34453;52.198;5.004;2023-05-10T09:12:41;101275.63;;;14.23;100.00
48668;BME280;34453;52.198;5.004;2023-05-10T09:15:07;101282.91;;;14.03;100.00
48668;BME280;34453;52.198;5.004;2023-05-10T09:17:34;101276.50;;;14.06;100.00
48668;BME280;34453;52.198;5.004;2023-05-10T09:20:02;101294.13;;;14.14;100.00
48668;BME280;34453;52.198;5.004;2023-05-10T09:22:30;101288.16;;;14.03;100.00
48668;BME280;34453;52.198;5.004;2023-05-10T09:25:05;101294.09;;;14.05;100.00
48668;BME280;34453;52.198;5.004;2023-05-10T09:27:32;101292.81;;;14.09;100.00
48668;BME280;34453;52.198;5.004;2023-05-10T09:29:57;101297.28;;;14.17;100.00
48668;BME280;34453;52.198;5.004;2023-05-10T09:32:39;101300.34;;;14.30;100.00
48668;BME280;34453;52.198;5.004;2023-05-10T09:35:11;101297.03;;;14.28;100.00
48668;BME280;34453;52.198;5.004;2023-05-10T09:37:42;101292.38;;;14.22;100.00
48668;BME280;34453;52.198;5.004;2023-05-10T09:40:12;101298.91;;;14.36;100.00
48668;BME280;34453;52.198;5.004;2023-05-10T09:42:38;101292.34;;;14.40;100.00
48668;BME280;34453;52.198;5.004;2023-05-10T09:45:04;101298.97;;;14.44;100.00
48668;BME280;34453;52.198;5.004;2023-05-10T09:47:34;101305.81;;;14.37;100.00
48668;BME280;34453;52.198;5.004;2023-05-10T09:50:01;101304.13;;;14.28;100.00
48668;BME280;34453;52.198;5.004;2023-05-10T09:52:31;101310.97;;;14.21;100.00
48668;BME280;34453;52.198;5.004;2023-05-10T09:55:10;101314.22;;;14.15;100.00
48668;BME280;34453;52.198;5.004;2023-05-10T09:57:35;101305.72;;;14.21;100.00
48668;BME280;34453;52.198;5.004;2023-05-10T10:00:01;101316.75;;;14.24;100.00
48668;BME280;34453;52.198;5.004;2023-05-10T10:02:29;101312.00;;;14.28;100.00
48668;BME280;34453;52.198;5.004;2023-05-10T10:04:55;101314.41;;;14.39;100.00
48668;BME280;34453;52.198;5.004;2023-05-10T10:07:24;101314.41;;;14.39;100.00
48668;BME280;34453;52.198;5.004;2023-05-10T10:09:51;101326.41;;;14.42;100.00
48668;BME280;34453;52.198;5.004;2023-05-10T10:12:17;101305.72;;;14.47;100.00
48668;BME280;34453;52.198;5.004;2023-05-10T10:14:43;101307.63;;;14.55;100.00
48668;BME280;34453;52.198;5.004;2023-05-10T10:17:09;101304.97;;;14.55;100.00
48668;BME280;34453;52.198;5.004;2023-05-10T10:19:35;101319.63;;;14.57;100.00
48668;BME280;34453;52.198;5.004;2023-05-10T10:22:00;101324.28;;;14.63;100.00
48668;BME280;34453;52.198;5.004;2023-05-10T10:24:26;101320.50;;;14.66;100.00
48668;BME280;34453;52.198;5.004;2023-05-10T10:26:54;101318.66;;;14.58;100.00
48668;BME280;34453;52.198;5.004;2023-05-10T10:29:31;101324.66;;;14.50;100.00
48668;BME280;34453;52.198;5.004;2023-05-10T10:32:19;101331.00;;;14.40;100.00
48668;BME280;34453;52.198;5.004;2023-05-10T10:34:47;101319.97;;;14.36;100.00
48668;BME280;34453;52.198;5.004;2023-05-10T10:37:13;101331.00;;;14.40;100.00
48668;BME280;34453;52.198;5.004;2023-05-10T10:39:38;101335.97;;;14.43;100.00
48668;BME280;34453;52.198;5.004;2023-05-10T10:42:04;101332.47;;;14.34;100.00
48668;BME280;34453;52.198;5.004;2023-05-10T10:57:19;101343.25;;;14.49;100.00
48668;BME280;34453;52.198;5.004;2023-05-10T10:59:47;101345.66;;;14.42;100.00
48668;BME280;34453;52.198;5.004;2023-05-10T11:02:44;101343.06;;;14.24;100.00
48668;BME280;34453;52.198;5.004;2023-05-10T11:07:57;101357.00;;;14.17;100.00
48668;BME280;34453;52.198;5.004;2023-05-10T11:10:24;101352.47;;;14.27;100.00
48668;BME280;34453;52.198;5.004;2023-05-10T11:15:30;101352.53;;;14.35;100.00
48668;BME280;34453;52.198;5.004;2023-05-10T11:17:56;101344.16;;;14.40;100.00
48668;BME280;34453;52.198;5.004;2023-05-10T11:20:22;101344.72;;;14.51;100.00
48668;BME280;34453;52.198;5.004;2023-05-10T11:22:53;101334.03;;;14.71;100.00
48668;BME280;34453;52.198;5.004;2023-05-10T11:25:19;101340.50;;;14.85;100.00
48668;BME280;34453;52.198;5.004;2023-05-10T11:27:47;101332.47;;;14.86;100.00
48668;BME280;34453;52.198;5.004;2023-05-10T11:30:13;101339.59;;;14.94;100.00
48668;BME280;34453;52.198;5.004;2023-05-10T11:32:40;101337.50;;;15.06;100.00
48668;BME280;34453;52.198;5.004;2023-05-10T11:35:10;101339.19;;;15.15;100.00
48668;BME280;34453;52.198;5.004;2023-05-10T11:37:36;101336.69;;;15.13;100.00
48668;BME280;34453;52.198;5.004;2023-05-10T11:40:02;101332.28;;;15.22;100.00
48668;BME280;34453;52.198;5.004;2023-05-10T11:42:28;101343.34;;;15.26;100.00
48668;BME280;34453;52.198;5.004;2023-05-10T11:44:54;101343.81;;;15.21;100.00
48668;BME280;34453;52.198;5.004;2023-05-10T11:47:20;101347.13;;;15.31;100.00
48668;BME280;34453;52.198;5.004;2023-05-10T11:49:46;101343.47;;;15.16;100.00
48668;BME280;34453;52.198;5.004;2023-05-10T11:52:12;101345.13;;;15.17;100.00
48668;BME280;34453;52.198;5.004;2023-05-10T11:54:37;101351.84;;;15.11;100.00
48668;BME280;34453;52.198;5.004;2023-05-10T11:57:03;101352.97;;;15.01;100.00
48668;BME280;34453;52.198;5.004;2023-05-10T11:59:28;101362.63;;;14.92;100.00
48668;BME280;34453;52.198;5.004;2023-05-10T12:01:54;101360.63;;;14.86;100.00
48668;BME280;34453;52.198;5.004;2023-05-10T12:04:20;101364.09;;;14.86;100.00
48668;BME280;34453;52.198;5.004;2023-05-10T12:06:45;101367.19;;;15.16;100.00
48668;BME280;34453;52.198;5.004;2023-05-10T12:09:11;101371.44;;;15.51;100.00
48668;BME280;34453;52.198;5.004;2023-05-10T12:11:40;101355.41;;;15.45;100.00
48668;BME280;34453;52.198;5.004;2023-05-10T12:14:06;101364.84;;;15.55;100.00
48668;BME280;34453;52.198;5.004;2023-05-10T12:16:32;101366.25;;;15.25;100.00
48668;BME280;34453;52.198;5.004;2023-05-10T12:18:59;101377.19;;;15.04;100.00
48668;BME280;34453;52.198;5.004;2023-05-10T12:21:25;101367.63;;;15.03;100.00
48668;BME280;34453;52.198;5.004;2023-05-10T12:23:53;101374.06;;;14.75;100.00
48668;BME280;34453;52.198;5.004;2023-05-10T12:26:22;101383.03;;;14.64;100.00
48668;BME280;34453;52.198;5.004;2023-05-10T12:28:48;101390.88;;;14.56;100.00
48668;BME280;34453;52.198;5.004;2023-05-10T12:31:13;101386.81;;;14.43;100.00
48668;BME280;34453;52.198;5.004;2023-05-10T12:33:43;101394.28;;;14.30;100.00
48668;BME280;34453;52.198;5.004;2023-05-10T12:36:11;101389.94;;;14.21;100.00
48668;BME280;34453;52.198;5.004;2023-05-10T12:38:39;101407.97;;;14.16;100.00
48668;BME280;34453;52.198;5.004;2023-05-10T12:41:12;101414.50;;;14.12;100.00
48668;BME280;34453;52.198;5.004;2023-05-10T12:43:38;101415.78;;;14.07;100.00
48668;BME280;34453;52.198;5.004;2023-05-10T12:46:12;101413.38;;;13.96;100.00
48668;BME280;34453;52.198;5.004;2023-05-10T12:48:39;101419.28;;;13.98;100.00
48668;BME280;34453;52.198;5.004;2023-05-10T12:51:06;101414.88;;;13.99;100.00
48668;BME280;34453;52.198;5.004;2023-05-10T12:53:35;101422.00;;;14.06;100.00
48668;BME280;34453;52.198;5.004;2023-05-10T12:56:01;101420.81;;;13.83;100.00
48668;BME280;34453;52.198;5.004;2023-05-10T12:58:26;101435.16;;;13.88;100.00
48668;BME280;34453;52.198;5.004;2023-05-10T13:00:52;101436.66;;;13.91;100.00
48668;BME280;34453;52.198;5.004;2023-05-10T13:03:18;101426.97;;;13.92;100.00
48668;BME280;34453;52.198;5.004;2023-05-10T13:05:43;101426.13;;;13.91;100.00
48668;BME280;34453;52.198;5.004;2023-05-10T13:08:09;101428.75;;;13.91;100.00
48668;BME280;34453;52.198;5.004;2023-05-10T13:10:35;101416.03;;;13.96;100.00